createdAt,value
2019-06-15T00:02:18.080Z,86.27
2019-06-15T00:04:48.623Z,86.71
2019-06-15T00:07:18.551Z,86.43
2019-06-15T00:09:48.322Z,86.66
2019-06-15T00:12:18.960Z,86.92
2019-06-15T00:14:49.066Z,86.99
2019-06-15T00:17:18.999Z,87.15
2019-06-15T00:19:48.885Z,87.09
2019-06-15T00:22:18.644Z,87.10
2019-06-15T00:24:48.480Z,87.00
2019-06-15T00:27:18.682Z,87.47
2019-06-15T00:29:49.208Z,87.52
2019-06-15T00:32:19.066Z,87.50
2019-06-15T00:34:48.859Z,87.57
2019-06-15T00:37:18.718Z,87.23
2019-06-15T00:39:48.477Z,87.00
2019-06-15T00:42:18.406Z,87.24
2019-06-15T00:44:48.268Z,87.67
2019-06-15T00:47:18.411Z,87.87
2019-06-15T00:49:48.830Z,87.49
2019-06-15T00:52:18.742Z,87.49
2019-06-15T00:54:50.682Z,87.91
2019-06-15T00:57:20.805Z,88.08
2019-06-15T00:59:50.853Z,87.94
2019-06-15T01:02:21.044Z,87.84
2019-06-15T01:04:51.223Z,87.90
2019-06-15T01:07:21.108Z,88.21
2019-06-15T01:09:51.009Z,88.27
2019-06-15T01:12:21.254Z,88.16
2019-06-15T01:14:51.109Z,88.34
2019-06-15T01:17:21.402Z,88.10
2019-06-15T01:19:51.689Z,88.44
2019-06-15T01:22:21.578Z,88.44
2019-06-15T01:25:04.855Z,88.44
2019-06-15T01:27:23.682Z,88.48
2019-06-15T01:29:54.112Z,88.48
2019-06-15T01:32:24.032Z,88.70
2019-06-15T01:34:54.267Z,88.58
2019-06-15T01:37:24.182Z,88.58
2019-06-15T01:39:54.159Z,88.70
2019-06-15T01:42:24.106Z,88.70
2019-06-15T01:44:54.116Z,89.04
2019-06-15T01:47:24.025Z,89.04
2019-06-15T01:49:53.875Z,89.11
2019-06-15T01:52:24.458Z,89.11
2019-06-15T01:54:54.398Z,88.90
2019-06-15T01:57:24.322Z,89.07
2019-06-15T01:59:54.193Z,89.21
2019-06-15T02:02:24.133Z,89.09
2019-06-15T02:04:54.249Z,89.13
2019-06-15T02:07:24.163Z,89.17
2019-06-15T02:09:54.629Z,88.99
2019-06-15T02:12:25.096Z,89.01
2019-06-15T02:14:55.130Z,88.80
2019-06-15T02:17:25.250Z,88.28
2019-06-15T02:19:55.236Z,88.27
2019-06-15T02:22:25.068Z,87.86
2019-06-15T02:24:56.364Z,87.86
2019-06-15T02:27:27.565Z,88.55
2019-06-15T02:29:57.360Z,88.55
2019-06-15T02:32:27.223Z,87.88
2019-06-15T02:34:57.781Z,87.84
2019-06-15T02:37:28.370Z,87.98
2019-06-15T02:39:58.257Z,88.08
2019-06-15T02:42:28.500Z,87.75
2019-06-15T02:44:58.661Z,87.61
2019-06-15T02:47:29.252Z,87.61
2019-06-15T02:49:59.232Z,88.04
2019-06-15T02:52:29.586Z,88.32
2019-06-15T02:54:59.774Z,88.57
2019-06-15T02:57:30.874Z,88.81
2019-06-15T03:00:00.992Z,88.99
2019-06-15T03:02:32.321Z,88.65
2019-06-15T03:05:02.496Z,88.65
2019-06-15T03:07:32.759Z,89.68
2019-06-15T03:10:03.200Z,89.68
2019-06-15T03:12:33.052Z,89.70
2019-06-15T03:15:03.030Z,89.93
2019-06-15T03:17:33.167Z,89.91
2019-06-15T03:20:03.230Z,89.97
2019-06-15T03:22:33.185Z,89.82
2019-06-15T03:25:03.142Z,89.85
2019-06-15T03:27:33.707Z,89.93
2019-06-15T03:30:03.861Z,89.94
2019-06-15T03:32:33.792Z,89.95
2019-06-15T03:35:03.667Z,89.79
2019-06-15T03:37:33.825Z,89.62
2019-06-15T03:40:04.408Z,89.54
2019-06-15T03:42:34.342Z,89.70
2019-06-15T03:45:04.546Z,90.01
2019-06-15T03:47:34.762Z,89.73
2019-06-15T03:50:05.186Z,89.73
2019-06-15T03:52:35.124Z,89.42
2019-06-15T03:55:06.217Z,89.42
2019-06-15T03:57:36.856Z,88.85
2019-06-15T04:00:21.027Z,88.85
2019-06-15T04:02:50.872Z,88.57
2019-06-15T04:05:20.658Z,87.49
2019-06-15T04:07:50.642Z,86.96
2019-06-15T04:10:20.858Z,86.96
2019-06-15T04:12:50.829Z,86.54
2019-06-15T04:15:21.029Z,86.33
2019-06-15T04:17:51.151Z,86.08
2019-06-15T04:20:21.085Z,86.14
2019-06-15T04:22:51.326Z,86.09
2019-06-15T04:25:21.339Z,86.41
2019-06-15T04:27:51.408Z,86.34
2019-06-15T04:30:22.798Z,86.16
2019-06-15T04:32:53.115Z,86.16
2019-06-15T04:35:23.428Z,86.72
2019-06-15T04:37:53.449Z,86.70
2019-06-15T04:40:23.491Z,86.70
2019-06-15T04:42:53.534Z,87.17
2019-06-15T04:45:23.566Z,87.24
2019-06-15T04:47:53.609Z,87.11
2019-06-15T04:50:24.336Z,87.11
2019-06-15T04:52:54.391Z,87.40
2019-06-15T04:55:24.388Z,87.58
2019-06-15T04:57:55.009Z,87.57
2019-06-15T05:00:25.106Z,87.42
2019-06-15T05:02:56.208Z,87.44
2019-06-15T05:05:26.226Z,87.23
2019-06-15T05:07:56.637Z,87.24
2019-06-15T05:10:26.701Z,87.24
2019-06-15T05:12:57.064Z,86.69
2019-06-15T05:15:27.101Z,86.73
2019-06-15T05:17:57.824Z,86.80
2019-06-15T05:20:27.854Z,86.82
2019-06-15T05:22:58.170Z,86.63
2019-06-15T05:25:28.194Z,86.48
2019-06-15T05:27:58.587Z,86.06
2019-06-15T05:30:28.657Z,86.61
2019-06-15T05:32:58.669Z,86.58
2019-06-15T05:35:29.049Z,86.58
2019-06-15T05:37:59.077Z,86.70
2019-06-15T05:40:29.227Z,86.79
2019-06-15T05:42:59.175Z,86.88
2019-06-15T05:45:29.107Z,86.91
2019-06-15T05:47:58.969Z,87.04
2019-06-15T05:50:28.939Z,87.21
2019-06-15T05:52:58.800Z,87.16
2019-06-15T05:55:29.281Z,87.13
2019-06-15T05:57:59.154Z,87.57
2019-06-15T06:00:29.102Z,87.99
2019-06-15T06:02:58.921Z,87.97
2019-06-15T06:05:29.214Z,87.39
2019-06-15T06:07:59.224Z,86.57
2019-06-15T06:10:29.914Z,86.57
2019-06-15T06:13:00.131Z,86.79
2019-06-15T06:15:30.010Z,87.10
2019-06-15T06:18:00.279Z,87.35
2019-06-15T06:20:30.444Z,87.11
2019-06-15T06:23:01.381Z,87.20
2019-06-15T06:25:31.349Z,87.32
2019-06-15T06:28:01.700Z,87.42
2019-06-15T06:30:31.669Z,87.17
2019-06-15T06:33:01.871Z,86.95
2019-06-15T06:35:31.739Z,86.95
2019-06-15T06:38:02.387Z,87.30
2019-06-15T06:40:32.575Z,87.70
2019-06-15T06:43:03.106Z,87.94
2019-06-15T06:45:33.398Z,87.94
2019-06-15T06:48:03.787Z,87.14
2019-06-15T06:51:01.037Z,87.05
2019-06-15T06:53:37.877Z,86.72
2019-06-15T06:56:16.347Z,86.19
2019-06-15T06:58:54.242Z,85.97
2019-06-15T07:01:29.791Z,85.86
2019-06-15T07:07:04.885Z,86.58
2019-06-15T07:09:37.322Z,86.33
2019-06-15T07:12:28.530Z,85.80
2019-06-15T07:15:04.863Z,86.00
2019-06-15T07:17:38.906Z,85.71
2019-06-15T07:20:18.371Z,85.42
2019-06-15T07:22:53.690Z,85.32
2019-06-15T07:25:43.523Z,84.58
2019-06-15T07:28:35.298Z,84.58
2019-06-15T07:31:09.635Z,84.58
2019-06-15T07:33:43.324Z,84.34
2019-06-15T07:36:17.109Z,84.40
2019-06-15T07:38:48.324Z,84.48
2019-06-15T07:41:23.219Z,84.67
2019-06-15T07:44:16.275Z,84.45
2019-06-15T07:46:55.442Z,83.87
2019-06-15T07:49:27.753Z,83.06
2019-06-15T07:52:17.867Z,82.15
2019-06-15T07:55:08.444Z,81.29
2019-06-15T07:57:52.995Z,80.80
2019-06-15T08:00:33.458Z,80.35
2019-06-15T08:03:24.453Z,80.52
2019-06-15T08:05:55.610Z,80.00
2019-06-15T08:08:27.469Z,79.26
2019-06-15T08:10:59.593Z,79.37
2019-06-15T08:13:32.826Z,79.85
2019-06-15T08:16:25.986Z,79.24
2019-06-15T08:18:58.760Z,79.20
2019-06-15T08:21:32.851Z,79.70
2019-06-15T08:24:06.144Z,78.70
2019-06-15T08:27:06.235Z,78.52
2019-06-15T08:29:47.174Z,78.62
2019-06-15T08:32:24.532Z,77.95
2019-06-15T08:35:15.769Z,78.06
2019-06-15T08:38:42.338Z,78.06
2019-06-15T08:45:09.937Z,78.23
2019-06-15T08:54:01.252Z,76.25
2019-06-15T08:56:46.836Z,74.55
2019-06-15T08:59:45.615Z,74.75
2019-06-15T09:02:42.721Z,74.60
2019-06-15T09:06:00.872Z,73.00
2019-06-15T09:08:39.751Z,73.07
2019-06-15T09:14:36.416Z,74.35
2019-06-15T09:20:42.385Z,74.54
2019-06-15T09:23:36.718Z,74.32
2019-06-15T09:26:16.313Z,75.12
2019-06-15T09:28:53.291Z,75.07
2019-06-15T09:31:33.348Z,75.43
2019-06-15T09:34:18.788Z,74.84
2019-06-15T09:37:06.045Z,75.04
2019-06-15T09:39:45.429Z,74.69
2019-06-15T09:42:17.403Z,75.44
2019-06-15T09:45:07.643Z,76.07
2019-06-15T09:51:13.675Z,76.36
2019-06-15T09:53:55.880Z,75.87
2019-06-15T09:56:27.438Z,75.59
2019-06-15T09:58:57.636Z,76.12
2019-06-15T10:01:27.645Z,75.49
2019-06-15T10:03:57.663Z,75.66
2019-06-15T10:06:28.979Z,75.37
2019-06-15T10:08:58.847Z,75.09
2019-06-15T10:11:28.809Z,74.93
2019-06-15T10:13:58.733Z,74.02
2019-06-15T10:16:28.531Z,72.36
2019-06-15T10:18:58.387Z,72.79
2019-06-15T10:21:28.360Z,73.53
2019-06-15T10:23:58.515Z,72.38
2019-06-15T10:26:28.388Z,71.51
2019-06-15T10:28:58.652Z,71.36
2019-06-15T10:31:28.602Z,70.02
2019-06-15T10:33:59.531Z,69.58
2019-06-15T10:36:29.479Z,70.19
2019-06-15T10:38:59.356Z,68.87
2019-06-15T10:41:29.215Z,66.86
2019-06-15T10:43:59.373Z,68.48
2019-06-15T10:46:29.234Z,66.29
2019-06-15T10:48:59.167Z,66.65
2019-06-15T10:51:29.308Z,67.00
2019-06-15T10:54:00.006Z,66.20
2019-06-15T10:56:29.823Z,64.09
2019-06-15T10:58:59.751Z,59.17
2019-06-15T11:01:29.557Z,59.17
2019-06-15T11:03:59.439Z,58.25
2019-06-15T11:06:29.785Z,58.25
2019-06-15T11:08:59.840Z,58.71
2019-06-15T11:11:31.031Z,58.24
2019-06-15T11:14:01.099Z,58.05
2019-06-15T11:16:31.042Z,58.56
2019-06-15T11:19:01.013Z,60.10
2019-06-15T11:21:30.975Z,60.10
2019-06-15T11:24:00.908Z,60.43
2019-06-15T11:26:31.203Z,60.43
2019-06-15T11:29:01.161Z,61.48
2019-06-15T11:31:31.149Z,62.68
2019-06-15T11:34:01.023Z,62.41
2019-06-15T11:36:30.989Z,61.76
2019-06-15T11:39:00.848Z,62.85
2019-06-15T11:41:32.401Z,60.86
2019-06-15T11:44:03.406Z,59.42
2019-06-15T11:46:33.322Z,59.67
2019-06-15T11:49:03.256Z,59.67
2019-06-15T11:51:33.818Z,59.52
2019-06-15T11:54:03.748Z,59.08
2019-06-15T11:56:34.072Z,59.21
2019-06-15T11:59:04.087Z,59.21
2019-06-15T12:01:34.069Z,59.79
2019-06-15T12:04:03.996Z,62.15
2019-06-15T12:06:34.238Z,62.15
2019-06-15T12:09:05.234Z,63.44
2019-06-15T12:11:35.245Z,63.18
2019-06-15T12:14:05.681Z,63.18
2019-06-15T12:16:36.709Z,63.36
2019-06-15T12:19:06.666Z,62.93
2019-06-15T12:21:36.900Z,62.73
2019-06-15T12:24:07.341Z,62.84
2019-06-15T12:26:37.536Z,62.83
2019-06-15T12:29:08.177Z,63.61
2019-06-15T12:31:38.130Z,62.80
2019-06-15T12:34:08.031Z,61.69
2019-06-15T12:36:37.967Z,60.23
2019-06-15T12:39:07.903Z,60.24
2019-06-15T12:41:38.239Z,59.83
2019-06-15T12:44:08.516Z,59.77
2019-06-15T12:46:38.388Z,59.77
2019-06-15T12:49:08.716Z,59.00
2019-06-15T12:51:40.863Z,59.27
2019-06-15T12:54:10.600Z,59.55
2019-06-15T12:56:40.604Z,60.50
2019-06-15T12:59:11.436Z,60.61
2019-06-15T13:01:41.778Z,61.69
2019-06-15T13:04:11.670Z,61.82
2019-06-15T13:06:41.663Z,61.47
2019-06-15T13:09:11.560Z,61.76
2019-06-15T13:11:41.491Z,60.38
2019-06-15T13:14:11.742Z,60.89
2019-06-15T13:16:41.711Z,61.16
2019-06-15T13:19:12.321Z,61.24
2019-06-15T13:21:42.371Z,61.59
2019-06-15T13:24:12.604Z,61.74
2019-06-15T13:26:42.473Z,61.45
2019-06-15T13:29:12.307Z,61.45
2019-06-15T13:31:42.276Z,58.55
2019-06-15T13:34:12.222Z,58.55
2019-06-15T13:36:41.993Z,58.01
2019-06-15T13:39:11.858Z,57.25
2019-06-15T13:41:41.849Z,56.61
2019-06-15T13:44:11.695Z,57.46
2019-06-15T13:46:41.876Z,57.37
2019-06-15T13:49:11.856Z,56.63
2019-06-15T13:51:41.755Z,56.71
2019-06-15T13:54:11.689Z,56.91
2019-06-15T13:56:41.586Z,55.23
2019-06-15T13:59:11.870Z,55.14
2019-06-15T14:01:42.072Z,55.98
2019-06-15T14:04:12.197Z,56.18
2019-06-15T14:06:42.045Z,55.54
2019-06-15T14:09:11.867Z,55.38
2019-06-15T14:11:41.666Z,56.43
2019-06-15T14:14:11.511Z,56.54
2019-06-15T14:16:41.351Z,54.79
2019-06-15T14:19:11.214Z,55.13
2019-06-15T14:21:41.788Z,53.23
2019-06-15T14:24:11.800Z,51.81
2019-06-15T14:26:41.712Z,49.85
2019-06-15T14:29:11.554Z,49.23
2019-06-15T14:31:50.332Z,48.13
2019-06-15T14:34:13.213Z,48.18
2019-06-15T14:36:43.388Z,46.12
2019-06-15T14:39:13.375Z,45.51
2019-06-15T14:41:46.826Z,45.40
2019-06-15T14:44:15.309Z,45.21
2019-06-15T14:46:45.260Z,44.34
2019-06-15T14:49:15.116Z,44.30
2019-06-15T14:51:44.998Z,43.35
2019-06-15T14:54:16.245Z,43.99
2019-06-15T14:56:47.151Z,44.37
2019-06-15T14:59:17.277Z,43.36
2019-06-15T15:01:47.385Z,42.18
2019-06-15T15:04:17.330Z,42.04
2019-06-15T15:06:47.322Z,40.86
2019-06-15T15:09:17.589Z,41.48
2019-06-15T15:11:47.527Z,41.99
2019-06-15T15:14:17.503Z,41.00
2019-06-15T15:16:47.432Z,39.88
2019-06-15T15:19:17.943Z,41.09
2019-06-15T15:21:49.474Z,42.33
2019-06-15T15:24:19.386Z,42.02
2019-06-15T15:26:49.556Z,42.07
2019-06-15T15:29:20.135Z,41.42
2019-06-15T15:31:50.354Z,41.47
2019-06-15T15:34:20.296Z,40.59
2019-06-15T15:36:50.129Z,40.57
2019-06-15T15:39:20.070Z,41.05
2019-06-15T15:41:49.994Z,41.05
2019-06-15T15:44:20.326Z,41.41
2019-06-15T15:46:50.251Z,40.57
2019-06-15T15:49:20.240Z,41.68
2019-06-15T15:51:50.184Z,41.56
2019-06-15T15:54:20.097Z,41.21
2019-06-15T15:56:50.014Z,41.04
2019-06-15T15:59:19.986Z,40.87
2019-06-15T16:01:49.971Z,40.90
2019-06-15T16:04:20.071Z,40.63
2019-06-15T16:06:50.494Z,40.98
2019-06-15T16:09:20.360Z,40.34
2019-06-15T16:11:50.657Z,40.68
2019-06-15T16:14:20.549Z,41.16
2019-06-15T16:16:50.403Z,40.58
2019-06-15T16:19:20.380Z,41.67
2019-06-15T16:21:50.303Z,41.27
2019-06-15T16:24:20.209Z,41.45
2019-06-15T16:26:51.909Z,42.08
2019-06-15T16:29:21.794Z,41.63
2019-06-15T16:31:51.998Z,41.84
2019-06-15T16:34:22.865Z,41.67
2019-06-15T16:36:52.828Z,42.08
2019-06-15T16:39:22.698Z,42.94
2019-06-15T16:41:52.472Z,42.36
2019-06-15T16:44:22.714Z,42.62
2019-06-15T16:46:52.742Z,43.10
2019-06-15T16:49:22.685Z,42.38
2019-06-15T16:51:52.849Z,42.42
2019-06-15T16:54:22.786Z,41.75
2019-06-15T16:56:52.793Z,42.03
2019-06-15T16:59:22.975Z,42.33
2019-06-15T17:01:55.888Z,43.67
2019-06-15T17:04:26.807Z,43.45
2019-06-15T17:06:56.786Z,43.30
2019-06-15T17:09:27.573Z,43.48
2019-06-15T17:11:57.735Z,43.30
2019-06-15T17:14:27.955Z,44.50
2019-06-15T17:16:57.954Z,44.46
2019-06-15T17:19:27.751Z,44.80
2019-06-15T17:22:13.801Z,45.26
2019-06-15T17:24:29.380Z,45.17
2019-06-15T17:26:59.604Z,45.15
2019-06-15T17:29:29.921Z,45.06
2019-06-15T17:31:59.843Z,45.27
2019-06-15T17:34:29.613Z,45.90
2019-06-15T17:36:59.466Z,45.93
2019-06-15T17:39:29.822Z,46.91
2019-06-15T17:41:59.899Z,48.88
2019-06-15T17:44:29.705Z,47.24
2019-06-15T17:47:00.623Z,46.01
2019-06-15T17:49:30.554Z,46.82
2019-06-15T17:52:00.480Z,46.04
2019-06-15T17:54:31.814Z,46.03
2019-06-15T17:57:01.779Z,46.26
2019-06-15T17:59:32.195Z,46.58
2019-06-15T18:02:02.050Z,46.95
2019-06-15T18:04:33.356Z,46.95
2019-06-15T18:07:03.312Z,47.10
2019-06-15T18:09:33.232Z,47.40
2019-06-15T18:12:03.189Z,46.95
2019-06-15T18:14:36.557Z,46.93
2019-06-15T18:17:07.246Z,46.77
2019-06-15T18:19:37.162Z,47.64
2019-06-15T18:22:07.346Z,48.03
2019-06-15T18:24:37.368Z,48.26
2019-06-15T18:27:09.667Z,48.50
2019-06-15T18:29:39.272Z,48.68
2019-06-15T18:32:09.196Z,48.10
2019-06-15T18:34:39.274Z,47.43
2019-06-15T18:37:09.214Z,47.01
2019-06-15T18:39:39.736Z,47.43
2019-06-15T18:42:09.634Z,48.03
2019-06-15T18:44:39.502Z,48.90
2019-06-15T18:47:09.701Z,49.52
2019-06-15T18:49:39.483Z,49.53
2019-06-15T18:52:09.353Z,50.63
2019-06-15T18:54:39.551Z,51.67
2019-06-15T18:57:09.469Z,51.80
2019-06-15T18:59:39.389Z,50.99
2019-06-15T19:02:09.613Z,50.30
2019-06-15T19:04:39.476Z,50.52
2019-06-15T19:07:09.614Z,52.20
2019-06-15T19:09:39.478Z,53.16
2019-06-15T19:12:09.717Z,53.00
2019-06-15T19:14:40.044Z,54.14
2019-06-15T19:17:09.974Z,53.80
2019-06-15T19:19:40.120Z,54.06
2019-06-15T19:22:10.070Z,54.52
2019-06-15T19:24:39.960Z,56.00
2019-06-15T19:27:09.933Z,56.59
2019-06-15T19:29:40.189Z,56.76
2019-06-15T19:32:10.396Z,57.12
2019-06-15T19:34:47.352Z,56.87
2019-06-15T19:37:12.957Z,57.14
2019-06-15T19:39:42.854Z,57.06
2019-06-15T19:42:12.797Z,57.29
2019-06-15T19:44:42.770Z,57.85
2019-06-15T19:47:12.633Z,57.73
2019-06-15T19:49:42.879Z,57.51
2019-06-15T19:52:13.202Z,57.49
2019-06-15T19:54:42.989Z,56.98
2019-06-15T19:57:12.873Z,57.46
2019-06-15T19:59:42.821Z,56.93
2019-06-15T20:02:13.084Z,56.91
2019-06-15T20:04:57.128Z,58.09
2019-06-15T20:07:16.901Z,58.70
2019-06-15T20:09:46.446Z,58.07
2019-06-15T20:12:21.550Z,57.16
2019-06-15T20:14:48.236Z,57.49
2019-06-15T20:17:18.170Z,58.01
2019-06-15T20:19:48.139Z,58.04
2019-06-15T20:22:18.087Z,59.06
2019-06-15T20:24:48.048Z,59.82
2019-06-15T20:27:19.026Z,59.01
2019-06-15T20:29:48.904Z,59.07
2019-06-15T20:32:19.185Z,59.63
2019-06-15T20:34:49.464Z,59.98
2019-06-15T20:37:19.338Z,59.63
2019-06-15T20:39:49.247Z,59.63
2019-06-15T20:42:19.090Z,59.11
2019-06-15T20:44:48.948Z,59.27
2019-06-15T20:47:18.732Z,59.90
2019-06-15T20:49:48.540Z,60.14
2019-06-15T20:52:18.496Z,60.41
2019-06-15T20:54:48.719Z,61.04
2019-06-15T20:57:18.688Z,60.98
2019-06-15T20:59:48.652Z,61.04
2019-06-15T21:02:18.495Z,60.80
2019-06-15T21:04:48.578Z,60.79
2019-06-15T21:07:18.531Z,60.76
2019-06-15T21:09:48.415Z,60.88
2019-06-15T21:12:18.375Z,59.97
2019-06-15T21:14:48.255Z,60.19
2019-06-15T21:17:18.136Z,61.39
2019-06-15T21:19:47.994Z,62.55
2019-06-15T21:22:17.836Z,62.85
2019-06-15T21:24:47.610Z,62.92
2019-06-15T21:27:18.574Z,63.34
2019-06-15T21:29:48.410Z,62.72
2019-06-15T21:32:18.322Z,62.33
2019-06-15T21:34:48.506Z,63.46
2019-06-15T21:37:18.555Z,63.96
2019-06-15T21:39:48.528Z,63.65
2019-06-15T21:42:19.543Z,63.19
2019-06-15T21:44:49.607Z,63.13
2019-06-15T21:47:19.872Z,62.95
2019-06-15T21:49:49.745Z,63.62
2019-06-15T21:52:19.529Z,63.46
2019-06-15T21:54:49.537Z,64.06
2019-06-15T21:57:19.799Z,64.71
2019-06-15T21:59:49.880Z,65.15
2019-06-15T22:02:20.400Z,64.84
2019-06-15T22:04:50.756Z,63.97
2019-06-15T22:07:21.037Z,63.92
2019-06-15T22:09:51.658Z,63.23
2019-06-15T22:12:21.784Z,63.64
2019-06-15T22:14:51.825Z,64.30
2019-06-15T22:17:21.950Z,64.50
2019-06-15T22:19:52.044Z,64.45
2019-06-15T22:22:22.161Z,64.59
2019-06-15T22:24:52.401Z,65.30
2019-06-15T22:27:22.511Z,64.33
2019-06-15T22:29:52.689Z,64.38
2019-06-15T22:32:22.717Z,64.59
2019-06-15T22:34:52.777Z,64.49
2019-06-15T22:37:22.874Z,64.20
2019-06-15T22:39:53.043Z,64.20
2019-06-15T22:42:23.174Z,64.17
2019-06-15T22:44:53.174Z,64.47
2019-06-15T22:47:23.255Z,64.04
2019-06-15T22:49:53.359Z,63.60
2019-06-15T22:52:23.621Z,62.77
2019-06-15T22:54:53.724Z,62.80
2019-06-15T22:57:26.042Z,62.80
2019-06-15T22:59:56.720Z,62.79
2019-06-15T23:02:26.904Z,62.80
2019-06-15T23:04:57.007Z,63.44
2019-06-15T23:07:27.127Z,64.13
2019-06-15T23:09:57.444Z,64.53
2019-06-15T23:12:27.534Z,64.97
2019-06-15T23:14:57.652Z,64.62
2019-06-15T23:17:27.778Z,64.36
2019-06-15T23:19:57.940Z,64.17
2019-06-15T23:22:28.046Z,64.20
2019-06-15T23:24:59.047Z,65.44
2019-06-15T23:27:29.154Z,65.44
2019-06-15T23:29:59.220Z,65.97
2019-06-15T23:32:29.270Z,65.98
2019-06-15T23:34:59.462Z,66.04
2019-06-15T23:37:29.643Z,65.86
2019-06-15T23:40:17.356Z,65.68
2019-06-15T23:42:47.736Z,65.33
2019-06-15T23:45:18.803Z,65.43
2019-06-15T23:47:51.966Z,65.43
2019-06-15T23:50:22.351Z,64.98
2019-06-15T23:52:52.410Z,64.69
2019-06-15T23:55:22.544Z,64.61
2019-06-15T23:57:52.721Z,64.61
